createdAt,value
2022-08-04T00:01:11.803Z,5.50
2022-08-04T00:03:44.942Z,5.30
2022-08-04T00:06:22.833Z,5.60
2022-08-04T00:08:55.609Z,5.60
2022-08-04T00:11:26.266Z,6.00
2022-08-04T00:14:02.431Z,5.20
2022-08-04T00:16:37.855Z,5.50
2022-08-04T00:19:18.048Z,5.80
2022-08-04T00:21:52.432Z,5.60
2022-08-04T00:24:22.021Z,5.70
2022-08-04T00:26:52.468Z,6.00
2022-08-04T00:29:20.884Z,5.50
2022-08-04T00:31:54.853Z,5.70
2022-08-04T00:34:27.538Z,5.70
2022-08-04T00:36:56.066Z,5.40
2022-08-04T00:39:24.147Z,5.80
2022-08-04T00:42:01.891Z,6.10
2022-08-04T00:44:36.129Z,6.00
2022-08-04T00:47:19.906Z,5.60
2022-08-04T00:49:58.049Z,5.50
2022-08-04T00:52:44.323Z,5.70
2022-08-04T00:55:11.954Z,6.00
2022-08-04T00:57:58.531Z,5.70
2022-08-04T01:03:02.693Z,5.90
2022-08-04T01:05:50.611Z,5.90
2022-08-04T01:08:24.355Z,5.80
2022-08-04T01:10:54.702Z,6.30
2022-08-04T01:13:29.670Z,6.10
2022-08-04T01:16:05.613Z,6.10
2022-08-04T01:18:36.512Z,6.30
2022-08-04T01:21:07.572Z,6.50
2022-08-04T01:23:53.392Z,6.10
2022-08-04T01:26:43.220Z,6.00
2022-08-04T01:29:23.601Z,6.20
2022-08-04T01:31:54.338Z,6.50
2022-08-04T01:34:22.779Z,6.40
2022-08-04T01:37:14.423Z,6.40
2022-08-04T01:39:51.213Z,6.70
2022-08-04T01:42:32.252Z,6.30
2022-08-04T01:45:05.300Z,6.70
2022-08-04T01:47:34.779Z,6.90
2022-08-04T01:50:06.333Z,6.50
2022-08-04T01:52:35.340Z,6.70
2022-08-04T01:55:04.505Z,6.50
2022-08-04T01:57:37.081Z,7.00
2022-08-04T02:00:07.577Z,6.50
2022-08-04T02:02:35.395Z,7.30
2022-08-04T02:05:03.193Z,6.40
2022-08-04T02:07:49.719Z,7.00
2022-08-04T02:10:23.230Z,6.90
2022-08-04T02:12:54.357Z,6.90
2022-08-04T02:15:26.915Z,7.10
2022-08-04T02:17:55.016Z,7.00
2022-08-04T02:20:22.780Z,7.10
2022-08-04T02:22:55.406Z,7.10
2022-08-04T02:25:25.686Z,6.60
2022-08-04T02:27:59.885Z,7.00
2022-08-04T02:30:34.148Z,7.70
2022-08-04T02:33:03.269Z,7.10
2022-08-04T02:35:35.725Z,7.50
2022-08-04T02:38:17.926Z,7.30
2022-08-04T02:40:56.402Z,7.10
2022-08-04T02:43:52.132Z,7.00
2022-08-04T02:46:19.890Z,7.50
2022-08-04T02:48:48.869Z,7.30
2022-08-04T02:51:20.090Z,7.90
2022-08-04T02:53:49.750Z,7.20
2022-08-04T02:56:19.264Z,7.70
2022-08-04T02:58:51.729Z,7.50
2022-08-04T03:01:21.631Z,7.90
2022-08-04T03:04:07.966Z,7.50
2022-08-04T03:06:55.589Z,7.70
2022-08-04T03:09:42.299Z,7.40
2022-08-04T03:12:29.359Z,7.40
2022-08-04T03:14:57.492Z,7.20
2022-08-04T03:17:52.422Z,7.70
2022-08-04T03:20:21.790Z,7.10
2022-08-04T03:23:12.206Z,7.20
2022-08-04T03:26:09.031Z,7.30
2022-08-04T03:28:46.089Z,8.00
2022-08-04T03:31:33.020Z,7.70
2022-08-04T03:34:04.419Z,7.30
2022-08-04T03:36:49.070Z,8.00
2022-08-04T03:39:36.116Z,7.20
2022-08-04T03:42:05.168Z,7.50
2022-08-04T03:44:52.263Z,8.00
2022-08-04T03:47:26.776Z,7.40
2022-08-04T03:50:13.717Z,8.00
2022-08-04T03:53:09.491Z,7.30
2022-08-04T03:55:40.064Z,6.70
2022-08-04T03:58:11.396Z,7.20
2022-08-04T04:00:52.610Z,7.50
2022-08-04T04:03:35.460Z,7.30
2022-08-04T04:06:15.177Z,7.00
2022-08-04T04:08:48.062Z,7.20
2022-08-04T04:11:35.252Z,6.80
2022-08-04T04:14:43.360Z,7.50
2022-08-04T04:17:14.305Z,7.10
2022-08-04T04:19:48.047Z,7.10
2022-08-04T04:22:21.722Z,7.20
2022-08-04T04:24:58.883Z,6.50
2022-08-04T04:27:45.359Z,6.70
2022-08-04T04:30:13.149Z,6.50
2022-08-04T04:32:53.097Z,6.20
2022-08-04T04:35:24.303Z,6.10
2022-08-04T04:38:01.532Z,6.30
2022-08-04T04:40:29.409Z,6.20
2022-08-04T04:43:10.273Z,6.00
2022-08-04T04:45:41.210Z,6.00
2022-08-04T04:48:21.257Z,5.80
2022-08-04T04:50:55.190Z,6.50
2022-08-04T04:53:25.930Z,6.50
2022-08-04T04:56:01.244Z,6.40
2022-08-04T04:58:31.721Z,6.20
2022-08-04T05:01:22.345Z,5.70
2022-08-04T05:03:50.340Z,6.10
2022-08-04T05:06:27.728Z,5.90
2022-08-04T05:09:01.634Z,5.50
2022-08-04T05:11:48.259Z,5.90
2022-08-04T05:14:38.962Z,5.90
2022-08-04T05:17:04.384Z,5.10
2022-08-04T05:19:52.335Z,5.30
2022-08-04T05:22:26.119Z,5.40
2022-08-04T05:24:59.595Z,4.90
2022-08-04T05:27:30.770Z,4.80
2022-08-04T05:30:01.726Z,4.80
2022-08-04T05:32:32.932Z,5.00
2022-08-04T05:35:03.772Z,4.90
2022-08-04T05:37:33.658Z,4.20
2022-08-04T05:40:04.360Z,4.60
2022-08-04T05:42:34.716Z,4.40
2022-08-04T05:45:02.832Z,4.50
2022-08-04T05:47:32.859Z,4.30
2022-08-04T05:50:05.125Z,4.50
2022-08-04T05:52:34.507Z,4.20
2022-08-04T05:55:02.982Z,4.00
2022-08-04T05:57:31.678Z,4.20
2022-08-04T06:00:06.962Z,4.10
2022-08-04T06:02:43.794Z,3.70
2022-08-04T06:05:11.850Z,4.50
2022-08-04T06:08:04.433Z,3.90
2022-08-04T06:10:29.923Z,4.20
2022-08-04T06:13:00.741Z,4.20
2022-08-04T06:15:29.530Z,4.00
2022-08-04T06:18:32.625Z,3.90
2022-08-04T06:20:52.278Z,4.40
2022-08-04T06:23:21.078Z,4.10
2022-08-04T06:25:55.212Z,4.00
2022-08-04T06:28:23.471Z,4.50
2022-08-04T06:30:52.274Z,4.40
2022-08-04T06:33:54.305Z,4.20
2022-08-04T06:36:24.854Z,4.40
2022-08-04T06:38:58.828Z,4.50
2022-08-04T06:41:29.100Z,4.90
2022-08-04T06:44:01.147Z,4.60
2022-08-04T06:46:30.351Z,4.70
2022-08-04T06:48:58.475Z,4.20
2022-08-04T06:51:35.563Z,4.10
2022-08-04T06:54:05.932Z,4.70
2022-08-04T06:56:34.514Z,4.20
2022-08-04T06:59:03.096Z,4.50
2022-08-04T07:01:31.719Z,4.40
2022-08-04T07:04:00.136Z,4.30
2022-08-04T07:06:28.644Z,4.00
2022-08-04T07:08:57.252Z,4.00
2022-08-04T07:11:26.230Z,4.00
2022-08-04T07:13:55.080Z,4.10
2022-08-04T07:16:30.907Z,4.60
2022-08-04T07:19:10.958Z,4.00
2022-08-04T07:21:39.761Z,4.70
2022-08-04T07:24:07.568Z,3.90
2022-08-04T07:26:35.661Z,4.30
2022-08-04T07:29:04.528Z,4.20
2022-08-04T07:31:34.199Z,4.00
2022-08-04T07:34:17.707Z,4.10
2022-08-04T07:36:52.801Z,3.70
2022-08-04T07:39:27.935Z,4.10
2022-08-04T07:42:01.997Z,4.20
2022-08-04T07:44:31.987Z,4.00
2022-08-04T07:47:01.053Z,4.20
2022-08-04T07:49:54.920Z,4.00
2022-08-04T07:52:17.341Z,4.00
2022-08-04T07:54:46.066Z,4.00
2022-08-04T07:57:19.526Z,4.10
2022-08-04T08:00:02.837Z,4.00
2022-08-04T08:02:30.969Z,4.20
2022-08-04T08:04:59.241Z,4.40
2022-08-04T08:07:27.134Z,4.40
2022-08-04T08:09:55.182Z,4.50
2022-08-04T08:12:36.051Z,4.60
2022-08-04T08:15:16.038Z,4.70
2022-08-04T08:17:57.876Z,5.40
2022-08-04T08:20:30.551Z,5.50
2022-08-04T08:22:59.547Z,5.20
2022-08-04T08:25:29.793Z,5.20
2022-08-04T08:27:58.780Z,5.50
2022-08-04T08:30:32.080Z,5.50
2022-08-04T08:33:05.502Z,5.60
2022-08-04T08:35:39.817Z,5.10
2022-08-04T08:38:28.954Z,5.50
2022-08-04T08:41:14.136Z,5.60
2022-08-04T08:44:05.869Z,6.00
2022-08-04T08:46:48.844Z,5.80
2022-08-04T08:50:02.493Z,6.00
2022-08-04T08:52:57.654Z,6.40
2022-08-04T08:55:31.636Z,6.00
2022-08-04T08:58:12.382Z,5.50
2022-08-04T09:00:59.811Z,5.70
2022-08-04T09:03:46.581Z,5.30
2022-08-04T09:09:03.214Z,5.60
2022-08-04T09:11:38.504Z,5.30
2022-08-04T09:14:30.128Z,5.40
2022-08-04T09:17:04.036Z,5.20
2022-08-04T09:19:38.861Z,5.70
2022-08-04T09:22:14.509Z,6.00
2022-08-04T09:24:48.724Z,5.60
2022-08-04T09:27:21.211Z,4.70
2022-08-04T09:30:03.093Z,4.50
2022-08-04T09:32:43.351Z,4.20
2022-08-04T09:35:30.477Z,4.90
2022-08-04T09:38:08.066Z,4.20
2022-08-04T09:40:57.300Z,4.50
2022-08-04T09:44:42.342Z,4.40
2022-08-04T09:46:56.674Z,4.00
2022-08-04T09:49:24.710Z,4.00
2022-08-04T09:51:57.494Z,4.60
2022-08-04T09:54:31.023Z,3.90
2022-08-04T09:57:18.857Z,3.80
2022-08-04T10:00:06.169Z,3.20
2022-08-04T10:02:38.430Z,4.00
2022-08-04T10:05:11.120Z,4.10
2022-08-04T10:08:04.639Z,3.90
2022-08-04T10:10:55.108Z,3.80
2022-08-04T10:13:33.372Z,3.70
2022-08-04T10:16:17.354Z,3.80
2022-08-04T10:18:46.378Z,4.20
2022-08-04T10:21:15.767Z,3.90
2022-08-04T10:24:00.416Z,4.00
2022-08-04T10:26:41.298Z,3.80
2022-08-04T10:29:12.921Z,4.30
2022-08-04T10:31:46.725Z,3.90
2022-08-04T10:37:06.518Z,4.10
2022-08-04T10:39:42.247Z,3.70
2022-08-04T10:42:17.910Z,4.00
2022-08-04T10:44:58.585Z,4.20
2022-08-04T10:47:32.557Z,4.30
2022-08-04T10:50:02.353Z,4.40
2022-08-04T10:52:34.697Z,3.80
2022-08-04T10:55:02.465Z,4.30
2022-08-04T10:57:35.712Z,3.80
2022-08-04T11:00:20.197Z,4.20
2022-08-04T11:02:56.306Z,4.20
2022-08-04T11:05:24.432Z,4.20
2022-08-04T11:07:57.305Z,3.80
2022-08-04T11:10:27.939Z,4.00
2022-08-04T11:13:02.250Z,3.80
2022-08-04T11:15:34.626Z,3.70
2022-08-04T11:18:06.772Z,3.70
2022-08-04T11:21:05.309Z,3.80
2022-08-04T11:23:35.074Z,4.10
2022-08-04T11:26:32.149Z,4.50
2022-08-04T11:29:12.808Z,4.00
2022-08-04T11:31:42.210Z,4.30
2022-08-04T11:34:22.985Z,4.20
2022-08-04T11:36:54.431Z,4.00
2022-08-04T11:39:23.416Z,4.30
2022-08-04T11:41:58.052Z,4.50
2022-08-04T11:44:36.631Z,4.30
2022-08-04T11:47:11.704Z,4.30
2022-08-04T11:49:57.041Z,4.30
2022-08-04T11:52:27.605Z,4.20
2022-08-04T11:54:58.179Z,4.00
2022-08-04T11:57:35.850Z,4.20
2022-08-04T12:00:15.168Z,4.30
2022-08-04T12:03:01.877Z,4.00
2022-08-04T12:05:36.965Z,3.90
2022-08-04T12:08:15.126Z,3.60
2022-08-04T12:10:43.939Z,3.80
2022-08-04T12:13:23.447Z,4.00
2022-08-04T12:16:14.354Z,3.90
2022-08-04T12:18:50.574Z,3.80
2022-08-04T12:21:39.962Z,3.60
2022-08-04T12:24:20.261Z,3.70
2022-08-04T12:26:54.357Z,3.70
2022-08-04T12:29:23.484Z,3.60
2022-08-04T12:31:53.884Z,3.80
2022-08-04T12:34:41.907Z,3.90
2022-08-04T12:37:24.615Z,3.60
2022-08-04T12:40:28.692Z,3.60
2022-08-04T12:42:56.425Z,3.70
2022-08-04T12:45:30.939Z,3.40
2022-08-04T12:47:59.724Z,3.50
2022-08-04T12:50:28.762Z,3.50
2022-08-04T12:53:02.741Z,3.50
2022-08-04T12:55:33.798Z,3.40
2022-08-04T12:58:13.082Z,3.30
2022-08-04T13:00:42.457Z,3.50
2022-08-04T13:03:12.028Z,3.60
2022-08-04T13:05:41.127Z,3.40
2022-08-04T13:08:10.753Z,3.40
2022-08-04T13:10:40.634Z,4.10
2022-08-04T13:13:13.006Z,3.90
2022-08-04T13:15:47.002Z,3.60
2022-08-04T13:18:30.389Z,3.50
2022-08-04T13:21:21.345Z,3.70
2022-08-04T13:24:19.925Z,3.70
2022-08-04T13:27:03.708Z,3.60
2022-08-04T13:29:59.524Z,4.20
2022-08-04T13:32:28.036Z,3.60
2022-08-04T13:34:56.879Z,3.50
2022-08-04T13:37:32.418Z,2.90
2022-08-04T13:40:01.281Z,3.40
2022-08-04T13:42:34.088Z,3.40
2022-08-04T13:45:06.060Z,3.30
2022-08-04T13:47:37.841Z,3.20
2022-08-04T13:50:12.466Z,3.30
2022-08-04T13:52:44.064Z,3.00
2022-08-04T13:55:19.739Z,2.80
2022-08-04T13:57:50.659Z,3.50
2022-08-04T14:00:29.838Z,3.20
2022-08-04T14:03:23.936Z,3.10
2022-08-04T14:06:10.700Z,3.00
2022-08-04T14:11:06.386Z,3.00
2022-08-04T14:13:40.991Z,3.20
2022-08-04T14:16:15.438Z,3.00
2022-08-04T14:18:43.732Z,3.40
2022-08-04T14:21:16.039Z,3.10
2022-08-04T14:23:47.188Z,3.30
2022-08-04T14:26:34.886Z,3.10
2022-08-04T14:29:26.290Z,3.20
2022-08-04T14:32:06.007Z,2.70
2022-08-04T14:34:41.323Z,2.80
2022-08-04T14:37:18.188Z,3.20
2022-08-04T14:40:19.073Z,3.00
2022-08-04T14:42:41.597Z,3.20
2022-08-04T14:45:09.973Z,3.00
2022-08-04T14:47:52.513Z,3.00
2022-08-04T14:50:33.321Z,3.30
2022-08-04T14:53:05.726Z,3.70
2022-08-04T14:55:37.247Z,20.90
2022-08-04T14:58:34.088Z,7.10
2022-08-04T15:00:55.099Z,6.00
2022-08-04T15:03:23.029Z,7.00
2022-08-04T15:06:00.967Z,4.10
2022-08-04T15:08:32.324Z,3.70
2022-08-04T15:11:03.005Z,3.70
2022-08-04T15:13:32.490Z,3.90
2022-08-04T15:16:07.905Z,4.10
2022-08-04T15:18:37.634Z,4.30
2022-08-04T15:21:08.444Z,4.00
2022-08-04T15:23:38.619Z,4.20
2022-08-04T15:26:13.199Z,4.60
2022-08-04T15:28:42.588Z,4.40
2022-08-04T15:32:06.131Z,4.20
2022-08-04T15:33:59.452Z,4.00
2022-08-04T15:36:32.125Z,4.10
2022-08-04T15:39:05.339Z,4.30
2022-08-04T15:41:33.668Z,4.40
2022-08-04T15:44:17.200Z,4.20
2022-08-04T15:46:49.468Z,4.30
2022-08-04T15:49:21.608Z,4.50
2022-08-04T15:52:12.569Z,4.20
2022-08-04T15:55:11.437Z,4.70
2022-08-04T15:58:00.400Z,4.30
2022-08-04T16:00:28.793Z,4.40
2022-08-04T16:02:57.373Z,4.20
2022-08-04T16:05:25.436Z,4.90
2022-08-04T16:07:57.608Z,4.60
2022-08-04T16:10:33.119Z,4.60
2022-08-04T16:13:05.229Z,5.10
2022-08-04T16:16:03.553Z,4.90
2022-08-04T16:18:32.482Z,4.50
2022-08-04T16:21:03.963Z,4.00
2022-08-04T16:23:53.073Z,4.00
2022-08-04T16:26:37.807Z,4.00
2022-08-04T16:29:24.114Z,4.20
2022-08-04T16:32:11.840Z,3.90
2022-08-04T16:35:09.310Z,3.70
2022-08-04T16:37:38.782Z,3.90
2022-08-04T16:40:35.150Z,3.60
2022-08-04T16:43:05.737Z,3.60
2022-08-04T16:45:48.780Z,3.80
2022-08-04T16:48:27.625Z,4.00
2022-08-04T16:51:04.669Z,3.70
2022-08-04T16:54:04.349Z,3.40
2022-08-04T16:56:33.178Z,3.50
2022-08-04T16:59:09.379Z,3.20
2022-08-04T17:01:37.758Z,3.30
2022-08-04T17:04:06.642Z,3.50
2022-08-04T17:06:38.886Z,3.30
2022-08-04T17:09:10.741Z,3.10
2022-08-04T17:11:38.923Z,3.50
2022-08-04T17:14:07.061Z,3.40
2022-08-04T17:16:36.465Z,3.20
2022-08-04T17:19:05.219Z,3.10
2022-08-04T17:21:34.492Z,3.40
2022-08-04T17:24:15.412Z,3.40
2022-08-04T17:26:54.597Z,3.40
2022-08-04T17:29:43.644Z,3.20
2022-08-04T17:32:17.070Z,3.60
2022-08-04T17:35:03.944Z,3.40
2022-08-04T17:37:41.085Z,3.70
2022-08-04T17:40:25.292Z,3.70
2022-08-04T17:44:04.402Z,3.60
2022-08-04T17:46:29.056Z,3.70
2022-08-04T17:49:08.872Z,3.90
2022-08-04T17:52:04.038Z,3.90
2022-08-04T17:54:37.445Z,3.60
2022-08-04T17:57:15.754Z,4.00
2022-08-04T17:59:58.877Z,4.00
2022-08-04T18:02:31.799Z,4.00
2022-08-04T18:05:11.255Z,4.30
2022-08-04T18:08:44.258Z,4.40
2022-08-04T18:10:39.763Z,4.30
2022-08-04T18:13:23.438Z,4.50
2022-08-04T18:16:00.046Z,4.90
2022-08-04T18:18:31.047Z,7.50
2022-08-04T18:21:03.273Z,7.80
2022-08-04T18:23:33.512Z,7.80
2022-08-04T18:26:03.760Z,6.90
2022-08-04T18:28:33.748Z,6.70
2022-08-04T18:31:02.869Z,6.80
2022-08-04T18:33:40.677Z,6.30
2022-08-04T18:36:34.418Z,6.90
2022-08-04T18:39:13.359Z,7.50
2022-08-04T18:42:00.994Z,8.10
2022-08-04T18:44:31.735Z,9.30
2022-08-04T18:47:22.123Z,10.60
2022-08-04T18:51:00.573Z,9.20
2022-08-04T18:52:42.111Z,8.50
2022-08-04T18:55:51.621Z,8.40
2022-08-04T18:58:07.327Z,8.10
2022-08-04T19:00:45.149Z,8.70
2022-08-04T19:03:16.424Z,9.30
2022-08-04T19:05:51.524Z,7.00
2022-08-04T19:08:34.438Z,6.80
2022-08-04T19:11:37.462Z,5.70
2022-08-04T19:13:58.484Z,6.60
2022-08-04T19:16:28.531Z,6.30
2022-08-04T19:18:58.087Z,6.10
2022-08-04T19:22:00.075Z,6.20
2022-08-04T19:24:32.821Z,6.00
2022-08-04T19:27:07.819Z,5.90
2022-08-04T19:29:41.410Z,5.80
2022-08-04T19:32:15.792Z,5.50
2022-08-04T19:34:47.415Z,5.90
2022-08-04T19:38:01.389Z,6.20
2022-08-04T19:40:08.111Z,6.10
2022-08-04T19:42:37.986Z,6.20
2022-08-04T19:45:07.310Z,6.30
2022-08-04T19:48:17.678Z,6.30
2022-08-04T19:50:23.730Z,6.20
2022-08-04T19:52:52.912Z,5.90
2022-08-04T19:55:22.780Z,6.10
2022-08-04T19:58:08.302Z,6.80
2022-08-04T20:00:38.988Z,6.60
2022-08-04T20:05:57.574Z,7.60
2022-08-04T20:08:27.875Z,7.90
2022-08-04T20:10:57.814Z,8.50
2022-08-04T20:13:36.934Z,9.40
2022-08-04T20:16:28.532Z,8.90
2022-08-04T20:19:02.411Z,10.00
2022-08-04T20:21:53.525Z,9.00
2022-08-04T20:24:37.761Z,7.80
2022-08-04T20:27:15.324Z,8.60
2022-08-04T20:29:48.389Z,7.80
2022-08-04T20:32:22.600Z,8.00
2022-08-04T20:34:52.394Z,7.60
2022-08-04T20:37:26.096Z,7.60
2022-08-04T20:40:00.958Z,7.40
2022-08-04T20:42:34.017Z,6.70
2022-08-04T20:45:02.684Z,7.00
2022-08-04T20:47:35.482Z,6.60
2022-08-04T20:50:08.726Z,8.20
2022-08-04T20:52:37.737Z,19.20
2022-08-04T20:55:07.072Z,14.90
2022-08-04T20:57:37.731Z,11.10
2022-08-04T21:00:29.939Z,11.00
2022-08-04T21:03:00.327Z,9.50
2022-08-04T21:05:29.004Z,8.30
2022-08-04T21:08:02.784Z,8.50
2022-08-04T21:10:33.176Z,7.30
2022-08-04T21:13:01.923Z,7.80
2022-08-04T21:15:58.467Z,7.40
2022-08-04T21:18:29.128Z,6.90
2022-08-04T21:21:00.823Z,7.20
2022-08-04T21:23:33.997Z,7.20
2022-08-04T21:26:03.755Z,6.90
2022-08-04T21:28:33.257Z,6.70
2022-08-04T21:31:10.902Z,6.90
2022-08-04T21:33:51.119Z,6.90
2022-08-04T21:36:21.840Z,7.00
2022-08-04T21:38:56.521Z,7.10
2022-08-04T21:41:27.082Z,6.70
2022-08-04T21:43:56.607Z,6.80
2022-08-04T21:46:30.124Z,7.20
2022-08-04T21:48:59.306Z,6.70
2022-08-04T21:51:58.582Z,6.80
2022-08-04T21:54:19.923Z,6.70
2022-08-04T21:56:50.695Z,6.70
2022-08-04T21:59:24.067Z,6.60
2022-08-04T22:02:01.391Z,6.60
2022-08-04T22:04:29.957Z,6.80
2022-08-04T22:07:02.692Z,6.70
2022-08-04T22:09:39.604Z,6.60
2022-08-04T22:12:12.012Z,6.40
2022-08-04T22:14:40.771Z,6.40
2022-08-04T22:17:13.311Z,6.30
2022-08-04T22:19:55.499Z,6.30
2022-08-04T22:22:27.217Z,6.90
2022-08-04T22:25:01.156Z,6.40
2022-08-04T22:27:55.115Z,6.50
2022-08-04T22:30:23.756Z,6.10
2022-08-04T22:32:51.715Z,6.00
2022-08-04T22:35:42.877Z,6.30
2022-08-04T22:38:24.365Z,6.20
2022-08-04T22:43:33.329Z,5.90
2022-08-04T22:46:05.070Z,6.00
2022-08-04T22:48:37.431Z,6.10
2022-08-04T22:51:07.610Z,6.10
2022-08-04T22:53:37.494Z,6.00
2022-08-04T22:56:10.663Z,5.40
2022-08-04T22:58:45.466Z,5.60
2022-08-04T23:01:19.539Z,5.30
2022-08-04T23:03:50.951Z,5.60
2022-08-04T23:06:28.414Z,5.60
2022-08-04T23:08:58.063Z,5.30
2022-08-04T23:11:34.629Z,5.60
2022-08-04T23:14:05.785Z,5.10
2022-08-04T23:16:40.803Z,5.20
2022-08-04T23:19:15.148Z,5.00
2022-08-04T23:21:47.893Z,5.00
2022-08-04T23:24:30.148Z,5.70
2022-08-04T23:26:59.371Z,5.90
2022-08-04T23:29:27.729Z,5.30
2022-08-04T23:32:20.204Z,5.10
2022-08-04T23:34:49.680Z,5.20
2022-08-04T23:37:17.795Z,5.10
2022-08-04T23:40:17.996Z,5.30
2022-08-04T23:42:33.652Z,5.20
2022-08-04T23:45:02.887Z,5.20
2022-08-04T23:48:15.454Z,5.50
2022-08-04T23:50:19.487Z,5.10
2022-08-04T23:52:49.466Z,5.30
2022-08-04T23:55:19.220Z,5.30
2022-08-04T23:58:06.273Z,4.80
